createdAt,value
2018-09-25T00:01:57.673Z,19.00
2018-09-25T00:04:32.675Z,18.80
2018-09-25T00:07:07.486Z,18.70
2018-09-25T00:09:42.369Z,18.60
2018-09-25T00:12:17.108Z,18.50
2018-09-25T00:14:51.891Z,18.40
2018-09-25T00:17:26.884Z,18.20
2018-09-25T00:20:01.606Z,18.20
2018-09-25T00:22:36.676Z,18.20
2018-09-25T00:25:11.492Z,18.00
2018-09-25T00:27:46.297Z,18.00
2018-09-25T00:30:21.086Z,18.00
2018-09-25T00:32:56.235Z,17.90
2018-09-25T00:35:30.979Z,17.60
2018-09-25T00:38:05.673Z,17.60
2018-09-25T00:40:40.855Z,17.60
2018-09-25T00:43:15.439Z,17.70
2018-09-25T00:45:50.134Z,17.60
2018-09-25T00:48:24.933Z,17.60
2018-09-25T00:50:59.625Z,17.70
2018-09-25T00:53:34.406Z,17.80
2018-09-25T00:56:09.089Z,17.90
2018-09-25T00:58:44.044Z,17.90
2018-09-25T01:01:18.666Z,17.90
2018-09-25T01:03:53.430Z,17.80
2018-09-25T01:06:28.396Z,17.90
2018-09-25T01:09:03.145Z,18.00
2018-09-25T01:11:37.933Z,18.00
2018-09-25T01:14:12.761Z,18.00
2018-09-25T01:16:47.519Z,18.10
2018-09-25T01:19:22.152Z,18.20
2018-09-25T01:21:56.906Z,18.30
2018-09-25T01:24:31.861Z,18.30
2018-09-25T01:27:07.175Z,18.50
2018-09-25T01:29:41.902Z,18.80
2018-09-25T01:32:17.128Z,19.10
2018-09-25T01:34:51.680Z,19.30
2018-09-25T01:37:26.501Z,19.60
2018-09-25T01:40:01.467Z,19.80
2018-09-25T01:42:36.698Z,19.90
2018-09-25T01:45:11.767Z,20.00
2018-09-25T01:47:46.981Z,20.10
2018-09-25T01:50:21.796Z,20.20
2018-09-25T01:52:56.875Z,20.20
2018-09-25T01:55:32.042Z,20.30
2018-09-25T01:58:07.997Z,20.40
2018-09-25T02:00:43.043Z,20.30
2018-09-25T02:03:17.906Z,20.40
2018-09-25T02:05:52.660Z,20.40
2018-09-25T02:08:27.366Z,20.40
2018-09-25T02:11:02.034Z,20.40
2018-09-25T02:13:36.909Z,20.30
2018-09-25T02:16:11.960Z,20.40
2018-09-25T02:18:47.102Z,20.30
2018-09-25T02:21:21.798Z,20.30
2018-09-25T02:23:57.048Z,20.30
2018-09-25T02:26:32.010Z,20.20
2018-09-25T02:29:06.746Z,20.30
2018-09-25T02:31:41.366Z,20.30
2018-09-25T02:34:16.301Z,20.30
2018-09-25T02:36:51.151Z,20.30
2018-09-25T02:39:26.120Z,20.20
2018-09-25T02:42:00.825Z,20.20
2018-09-25T02:44:35.668Z,20.10
2018-09-25T02:47:10.604Z,20.10
2018-09-25T02:49:45.424Z,20.00
2018-09-25T02:52:20.202Z,20.10
2018-09-25T02:54:55.698Z,20.10
2018-09-25T02:57:30.390Z,20.00
2018-09-25T03:00:05.270Z,20.00
2018-09-25T03:02:40.389Z,20.10
2018-09-25T03:05:15.781Z,20.10
2018-09-25T03:07:50.634Z,20.10
2018-09-25T03:10:25.532Z,20.00
2018-09-25T03:13:00.436Z,20.10
2018-09-25T03:15:35.190Z,20.10
2018-09-25T03:18:09.964Z,20.00
2018-09-25T03:20:44.593Z,19.80
2018-09-25T03:23:19.249Z,19.80
2018-09-25T03:25:53.789Z,19.80
2018-09-25T03:28:28.427Z,19.80
2018-09-25T03:31:03.254Z,19.70
2018-09-25T03:33:38.418Z,19.90
2018-09-25T03:36:13.249Z,19.80
2018-09-25T03:38:47.977Z,19.80
2018-09-25T03:41:22.881Z,19.70
2018-09-25T03:43:57.623Z,19.70
2018-09-25T03:46:32.722Z,19.70
2018-09-25T03:49:08.020Z,19.60
2018-09-25T03:51:43.680Z,19.60
2018-09-25T03:54:18.758Z,19.60
2018-09-25T03:56:53.602Z,19.60
2018-09-25T03:59:28.465Z,19.60
2018-09-25T04:02:03.681Z,19.70
2018-09-25T04:04:38.573Z,19.70
2018-09-25T04:07:13.739Z,19.60
2018-09-25T04:09:48.761Z,19.50
2018-09-25T04:12:23.845Z,19.60
2018-09-25T04:14:58.639Z,19.50
2018-09-25T04:17:33.907Z,19.60
2018-09-25T04:20:08.716Z,19.60
2018-09-25T04:22:43.909Z,19.50
2018-09-25T04:25:18.846Z,19.60
2018-09-25T04:27:53.494Z,19.60
2018-09-25T04:30:28.432Z,19.60
2018-09-25T04:33:03.227Z,19.70
2018-09-25T04:35:37.983Z,19.80
2018-09-25T04:38:12.698Z,19.70
2018-09-25T04:40:47.795Z,19.70
2018-09-25T04:43:22.360Z,19.70
2018-09-25T04:45:57.135Z,19.70
2018-09-25T04:48:32.483Z,19.70
2018-09-25T04:51:07.163Z,19.70
2018-09-25T04:53:42.476Z,19.70
2018-09-25T04:56:17.865Z,19.70
2018-09-25T04:58:52.928Z,19.70
2018-09-25T05:01:27.961Z,19.60
2018-09-25T05:04:02.642Z,19.60
2018-09-25T05:06:38.706Z,19.60
2018-09-25T05:09:14.132Z,19.60
2018-09-25T05:11:49.180Z,19.60
2018-09-25T05:14:24.091Z,19.70
2018-09-25T05:16:59.206Z,19.60
2018-09-25T05:19:34.074Z,19.60
2018-09-25T05:22:09.135Z,19.60
2018-09-25T05:24:44.037Z,19.70
2018-09-25T05:27:18.966Z,19.60
2018-09-25T05:29:53.841Z,19.70
2018-09-25T05:32:28.649Z,19.70
2018-09-25T05:35:03.527Z,19.80
2018-09-25T05:37:38.468Z,19.80
2018-09-25T05:40:13.167Z,19.80
2018-09-25T05:42:47.996Z,19.70
2018-09-25T05:45:22.531Z,19.80
2018-09-25T05:47:57.262Z,19.80
2018-09-25T05:50:32.158Z,19.80
2018-09-25T05:53:06.969Z,19.80
2018-09-25T05:55:41.831Z,19.80
2018-09-25T05:58:16.531Z,19.80
2018-09-25T06:00:51.436Z,19.80
2018-09-25T06:03:27.113Z,19.90
2018-09-25T06:06:01.977Z,19.90
2018-09-25T06:08:37.417Z,19.90
2018-09-25T06:11:12.706Z,19.80
2018-09-25T06:13:47.316Z,19.90
2018-09-25T06:16:22.093Z,19.90
2018-09-25T06:18:57.125Z,20.00
2018-09-25T06:21:32.351Z,20.00
2018-09-25T06:24:07.699Z,20.00
2018-09-25T06:26:43.137Z,19.90
2018-09-25T06:29:18.496Z,19.90
2018-09-25T06:31:53.402Z,19.90
2018-09-25T06:34:28.607Z,19.90
2018-09-25T06:37:03.576Z,19.90
2018-09-25T06:45:11.926Z,19.90
2018-09-25T06:47:47.533Z,19.90
2018-09-25T06:50:23.207Z,20.00
2018-09-25T06:52:58.570Z,20.00
2018-09-25T06:55:33.437Z,20.00
2018-09-25T06:58:09.379Z,20.10
2018-09-25T07:00:44.379Z,20.20
2018-09-25T07:03:19.233Z,20.30
2018-09-25T07:05:54.417Z,20.40
2018-09-25T07:08:29.425Z,20.50
2018-09-25T07:11:04.186Z,20.50
2018-09-25T07:13:39.222Z,20.50
2018-09-25T07:16:14.155Z,20.50
2018-09-25T07:18:49.844Z,20.50
2018-09-25T07:21:24.774Z,20.50
2018-09-25T07:23:59.791Z,20.40
2018-09-25T07:26:34.935Z,20.40
2018-09-25T07:29:09.877Z,20.40
2018-09-25T07:31:44.802Z,20.40
2018-09-25T07:34:19.678Z,20.30
2018-09-25T07:36:54.546Z,20.30
2018-09-25T07:39:29.563Z,20.20
2018-09-25T07:42:04.537Z,20.10
2018-09-25T07:44:39.576Z,20.00
2018-09-25T07:47:14.472Z,20.00
2018-09-25T07:49:49.386Z,19.90
2018-09-25T07:52:24.234Z,19.80
2018-09-25T07:54:59.215Z,19.90
2018-09-25T07:57:34.175Z,19.90
2018-09-25T08:00:10.457Z,19.90
2018-09-25T08:02:45.543Z,19.80
2018-09-25T08:05:20.661Z,19.80
2018-09-25T08:07:56.001Z,19.70
2018-09-25T08:10:32.195Z,19.70
2018-09-25T08:13:07.176Z,19.70
2018-09-25T08:15:42.133Z,19.60
2018-09-25T08:18:17.275Z,19.70
2018-09-25T08:20:52.085Z,19.70
2018-09-25T08:23:27.161Z,19.70
2018-09-25T08:26:02.069Z,19.70
2018-09-25T08:28:37.008Z,19.70
2018-09-25T08:31:12.133Z,19.60
2018-09-25T08:33:47.059Z,19.60
2018-09-25T08:36:23.369Z,19.50
2018-09-25T08:38:58.404Z,19.50
2018-09-25T08:41:33.798Z,19.50
2018-09-25T08:44:09.201Z,19.40
2018-09-25T08:46:44.686Z,19.50
2018-09-25T08:49:19.851Z,19.60
2018-09-25T08:51:55.185Z,19.50
2018-09-25T08:54:30.090Z,19.40
2018-09-25T08:57:06.524Z,19.50
2018-09-25T08:59:41.616Z,19.50
2018-09-25T09:02:16.647Z,19.40
2018-09-25T09:04:51.719Z,19.50
2018-09-25T09:07:26.734Z,19.40
2018-09-25T09:10:01.978Z,19.40
2018-09-25T09:12:37.070Z,19.40
2018-09-25T09:15:12.038Z,19.40
2018-09-25T09:17:46.910Z,19.40
2018-09-25T09:20:21.871Z,19.50
2018-09-25T09:22:56.843Z,19.50
2018-09-25T09:25:31.772Z,19.40
2018-09-25T09:28:06.540Z,19.40
2018-09-25T09:30:41.708Z,19.30
2018-09-25T09:33:16.738Z,19.40
2018-09-25T09:35:51.592Z,19.30
2018-09-25T09:38:26.703Z,19.30
2018-09-25T09:41:01.645Z,19.40
2018-09-25T09:43:36.539Z,19.50
2018-09-25T09:46:11.414Z,19.50
2018-09-25T09:48:46.566Z,19.40
2018-09-25T09:51:21.377Z,19.40
2018-09-25T09:53:56.582Z,19.50
2018-09-25T09:56:32.839Z,19.60
2018-09-25T09:59:07.770Z,19.60
2018-09-25T10:01:42.688Z,19.70
2018-09-25T10:04:17.782Z,19.70
2018-09-25T10:06:53.204Z,19.70
2018-09-25T10:09:28.299Z,19.70
2018-09-25T10:12:04.044Z,19.60
2018-09-25T10:14:38.952Z,19.60
2018-09-25T10:17:14.349Z,19.60
2018-09-25T10:19:49.348Z,19.60
2018-09-25T10:22:24.373Z,19.50
2018-09-25T10:24:59.414Z,19.40
2018-09-25T10:27:34.517Z,19.30
2018-09-25T10:30:09.551Z,19.40
2018-09-25T10:32:44.643Z,19.50
2018-09-25T10:35:20.245Z,19.50
2018-09-25T10:37:55.219Z,19.60
2018-09-25T10:40:30.018Z,19.40
2018-09-25T10:43:05.077Z,19.30
2018-09-25T10:45:39.883Z,19.30
2018-09-25T10:48:14.936Z,19.30
2018-09-25T10:50:49.852Z,19.30
2018-09-25T10:53:25.126Z,19.40
2018-09-25T10:56:00.338Z,19.40
2018-09-25T10:58:35.381Z,19.40
2018-09-25T11:03:47.302Z,19.40
2018-09-25T11:06:22.293Z,19.20
2018-09-25T11:08:57.381Z,19.20
2018-09-25T11:11:32.521Z,19.10
2018-09-25T11:14:07.686Z,19.00
2018-09-25T11:16:42.623Z,19.00
2018-09-25T11:19:17.617Z,19.00
2018-09-25T11:21:52.559Z,18.90
2018-09-25T11:24:27.633Z,18.80
2018-09-25T11:27:02.826Z,18.70
2018-09-25T11:29:38.205Z,18.80
2018-09-25T11:32:13.498Z,18.70
2018-09-25T11:34:48.355Z,18.70
2018-09-25T11:37:23.542Z,18.70
2018-09-25T11:39:58.531Z,18.60
2018-09-25T11:42:34.406Z,18.70
2018-09-25T11:45:09.593Z,18.70
2018-09-25T11:47:44.501Z,18.70
2018-09-25T11:50:19.581Z,18.70
2018-09-25T11:52:54.529Z,18.80
2018-09-25T11:55:29.705Z,18.80
2018-09-25T11:58:05.347Z,18.90
2018-09-25T12:00:40.697Z,18.90
2018-09-25T12:03:17.088Z,19.00
2018-09-25T12:05:52.689Z,19.00
2018-09-25T12:08:28.200Z,19.00
2018-09-25T12:11:03.435Z,18.90
2018-09-25T12:13:38.468Z,18.90
2018-09-25T12:16:13.399Z,18.80
2018-09-25T12:18:48.159Z,18.70
2018-09-25T12:21:23.188Z,18.70
2018-09-25T12:23:59.102Z,18.70
2018-09-25T12:26:34.197Z,18.70
2018-09-25T12:29:09.353Z,18.70
2018-09-25T12:31:45.328Z,18.70
2018-09-25T12:34:20.214Z,18.70
2018-09-25T12:36:54.973Z,18.70
2018-09-25T12:39:29.980Z,18.70
2018-09-25T12:42:04.948Z,18.70
2018-09-25T12:44:40.181Z,18.80
2018-09-25T12:47:15.990Z,18.80
2018-09-25T12:49:50.937Z,18.70
2018-09-25T12:52:26.066Z,18.70
2018-09-25T12:55:00.985Z,18.50
2018-09-25T12:57:36.359Z,18.50
2018-09-25T13:00:11.769Z,18.40
2018-09-25T13:02:46.718Z,18.30
2018-09-25T13:05:22.089Z,18.20
2018-09-25T13:07:57.549Z,18.20
2018-09-25T13:10:32.787Z,18.10
2018-09-25T13:13:07.871Z,17.80
2018-09-25T13:15:43.683Z,17.60
2018-09-25T13:18:18.736Z,17.50
2018-09-25T13:20:54.186Z,17.40
2018-09-25T13:23:29.263Z,17.20
2018-09-25T13:26:04.792Z,17.10
2018-09-25T13:28:40.294Z,17.00
2018-09-25T13:31:15.483Z,17.00
2018-09-25T13:33:50.972Z,17.00
2018-09-25T13:36:26.113Z,17.00
2018-09-25T13:39:01.336Z,16.90
2018-09-25T13:41:36.271Z,16.80
2018-09-25T13:44:11.485Z,16.80
2018-09-25T13:46:46.449Z,16.80
2018-09-25T13:49:21.354Z,16.70
2018-09-25T13:51:57.585Z,16.60
2018-09-25T13:54:32.489Z,16.70
2018-09-25T13:57:07.871Z,16.60
2018-09-25T13:59:42.906Z,16.80
2018-09-25T14:02:18.190Z,16.90
2018-09-25T14:04:53.273Z,16.70
2018-09-25T14:07:28.829Z,16.70
2018-09-25T14:10:03.815Z,16.70
2018-09-25T14:12:38.761Z,16.70
2018-09-25T14:15:14.246Z,16.70
2018-09-25T14:17:49.324Z,16.60
2018-09-25T14:20:25.017Z,16.50
2018-09-25T14:23:00.386Z,16.40
2018-09-25T14:25:35.334Z,16.40
2018-09-25T14:28:10.753Z,16.40
2018-09-25T14:30:45.963Z,16.40
2018-09-25T14:33:21.480Z,16.40
2018-09-25T14:35:56.444Z,16.40
2018-09-25T14:38:31.319Z,16.40
2018-09-25T14:41:06.355Z,16.50
2018-09-25T14:43:41.370Z,16.50
2018-09-25T14:46:16.351Z,16.50
2018-09-25T14:48:51.249Z,16.50
2018-09-25T14:51:26.415Z,16.50
2018-09-25T14:54:01.296Z,16.50
2018-09-25T14:56:36.197Z,16.50
2018-09-25T14:59:11.171Z,16.50
2018-09-25T15:01:46.244Z,16.50
2018-09-25T15:04:21.236Z,16.50
2018-09-25T15:06:56.351Z,16.60
2018-09-25T15:09:31.090Z,16.60
2018-09-25T15:12:06.026Z,16.60
2018-09-25T15:14:41.230Z,16.60
2018-09-25T15:17:16.322Z,16.60
2018-09-25T15:19:51.318Z,16.60
2018-09-25T15:22:26.463Z,16.60
2018-09-25T15:25:01.199Z,16.60
2018-09-25T15:27:36.434Z,16.60
2018-09-25T15:30:13.164Z,16.60
2018-09-25T15:32:49.251Z,16.60
2018-09-25T15:35:24.095Z,16.50
2018-09-25T15:37:59.099Z,16.50
2018-09-25T15:40:34.233Z,16.60
2018-09-25T15:43:09.376Z,16.50
2018-09-25T15:45:44.633Z,16.60
2018-09-25T15:48:19.584Z,16.60
2018-09-25T15:50:54.774Z,16.60
2018-09-25T15:53:29.692Z,16.60
2018-09-25T15:56:04.794Z,16.60
2018-09-25T15:58:39.820Z,16.60
2018-09-25T16:01:14.652Z,16.60
2018-09-25T16:03:49.395Z,16.60
2018-09-25T16:06:24.500Z,16.60
2018-09-25T16:09:00.146Z,16.60
2018-09-25T16:11:36.287Z,16.60
2018-09-25T16:14:11.100Z,16.50
2018-09-25T16:16:46.204Z,16.50
2018-09-25T16:19:21.455Z,16.40
2018-09-25T16:21:56.458Z,16.40
2018-09-25T16:24:31.345Z,16.40
2018-09-25T16:27:06.334Z,16.40
2018-09-25T16:29:41.304Z,16.40
2018-09-25T16:32:16.063Z,16.40
2018-09-25T16:34:51.226Z,16.50
2018-09-25T16:37:26.265Z,16.40
2018-09-25T16:40:01.253Z,16.40
2018-09-25T16:42:36.038Z,16.40
2018-09-25T16:45:10.974Z,16.40
2018-09-25T16:47:46.311Z,16.40
2018-09-25T16:50:21.264Z,16.30
2018-09-25T16:52:56.390Z,16.40
2018-09-25T16:55:31.264Z,16.40
2018-09-25T16:58:06.227Z,16.40
2018-09-25T17:00:41.093Z,16.40
2018-09-25T17:03:16.008Z,16.40
2018-09-25T17:05:51.028Z,16.40
2018-09-25T17:08:26.142Z,16.40
2018-09-25T17:11:01.167Z,16.40
2018-09-25T17:13:36.160Z,16.40
2018-09-25T17:16:11.221Z,16.40
2018-09-25T17:18:46.565Z,16.40
2018-09-25T17:21:21.400Z,16.40
2018-09-25T17:23:56.192Z,16.40
2018-09-25T17:26:30.935Z,16.40
2018-09-25T17:29:06.368Z,16.40
2018-09-25T17:31:41.856Z,16.40
2018-09-25T17:34:16.847Z,16.50
2018-09-25T17:36:51.663Z,16.50
2018-09-25T17:39:26.992Z,16.50
2018-09-25T17:42:02.790Z,16.40
2018-09-25T17:44:37.665Z,16.40
2018-09-25T17:47:12.688Z,16.40
2018-09-25T17:49:47.918Z,16.40
2018-09-25T17:52:22.799Z,16.30
2018-09-25T17:54:58.427Z,16.30
2018-09-25T17:57:33.762Z,16.30
2018-09-25T18:00:09.056Z,16.30
2018-09-25T18:02:43.957Z,16.30
2018-09-25T18:05:19.012Z,16.30
2018-09-25T18:07:54.704Z,16.40
2018-09-25T18:10:29.829Z,16.40
2018-09-25T18:13:06.199Z,16.40
2018-09-25T18:15:41.153Z,16.50
2018-09-25T18:18:16.392Z,16.40
2018-09-25T18:20:52.888Z,16.40
2018-09-25T18:23:28.562Z,16.40
2018-09-25T18:26:04.025Z,16.40
2018-09-25T18:28:38.867Z,16.40
2018-09-25T18:31:14.491Z,16.40
2018-09-25T18:33:49.596Z,16.40
2018-09-25T18:36:24.733Z,16.40
2018-09-25T18:38:59.612Z,16.40
2018-09-25T18:41:35.497Z,16.40
2018-09-25T18:44:13.085Z,16.40
2018-09-25T18:46:48.061Z,16.40
2018-09-25T18:49:23.358Z,16.40
2018-09-25T18:51:58.434Z,16.40
2018-09-25T18:54:34.205Z,16.50
2018-09-25T18:57:09.403Z,16.50
2018-09-25T18:59:44.351Z,16.50
2018-09-25T19:02:19.300Z,16.50
2018-09-25T19:04:54.321Z,16.50
2018-09-25T19:07:29.894Z,16.40
2018-09-25T19:10:05.197Z,16.50
2018-09-25T19:12:39.933Z,16.50
2018-09-25T19:15:14.928Z,16.60
2018-09-25T19:17:50.788Z,16.50
2018-09-25T19:20:25.923Z,16.50
2018-09-25T19:23:01.596Z,16.60
2018-09-25T19:25:38.995Z,16.60
2018-09-25T19:28:14.115Z,16.50
2018-09-25T19:30:49.421Z,16.50
2018-09-25T19:36:01.271Z,16.60
2018-09-25T19:38:40.866Z,16.60
2018-09-25T19:41:15.921Z,16.60
2018-09-25T19:43:51.163Z,16.60
2018-09-25T19:46:28.899Z,16.60
2018-09-25T19:49:03.784Z,16.60
2018-09-25T19:51:38.530Z,16.60
2018-09-25T19:54:13.902Z,16.70
2018-09-25T19:56:49.398Z,16.70
2018-09-25T19:59:24.419Z,16.60
2018-09-25T20:01:59.793Z,16.60
2018-09-25T20:04:35.319Z,16.60
2018-09-25T20:07:10.490Z,16.50
2018-09-25T20:09:46.960Z,16.50
2018-09-25T20:12:21.624Z,16.50
2018-09-25T20:14:56.468Z,16.50
2018-09-25T20:17:31.664Z,16.60
2018-09-25T20:20:06.791Z,16.70
2018-09-25T20:22:41.799Z,16.60
2018-09-25T20:25:17.004Z,16.60
2018-09-25T20:27:51.947Z,16.60
2018-09-25T20:30:33.315Z,16.50
2018-09-25T20:33:08.327Z,16.50
2018-09-25T20:35:43.278Z,16.50
2018-09-25T20:38:18.068Z,16.40
2018-09-25T20:40:52.847Z,16.50
2018-09-25T20:43:27.779Z,16.50
2018-09-25T20:46:02.778Z,16.50
2018-09-25T20:48:37.472Z,16.50
2018-09-25T20:51:12.285Z,16.50
2018-09-25T20:53:47.589Z,16.50
2018-09-25T20:56:22.328Z,16.50
2018-09-25T20:58:57.582Z,16.50
2018-09-25T21:01:33.492Z,16.50
2018-09-25T21:04:08.666Z,16.40
2018-09-25T21:06:44.342Z,16.40
2018-09-25T21:09:19.201Z,16.40
2018-09-25T21:11:54.608Z,16.40
2018-09-25T21:14:29.613Z,16.50
2018-09-25T21:17:04.644Z,16.40
2018-09-25T21:19:41.097Z,16.30
2018-09-25T21:22:16.288Z,16.40
2018-09-25T21:24:51.582Z,16.40
2018-09-25T21:27:26.676Z,16.30
2018-09-25T21:30:01.719Z,16.30
2018-09-25T21:32:36.906Z,16.40
2018-09-25T21:35:12.207Z,16.40
2018-09-25T21:37:47.487Z,16.40
2018-09-25T21:40:22.981Z,16.40
2018-09-25T21:42:57.935Z,16.50
2018-09-25T21:45:32.872Z,16.60
2018-09-25T21:48:08.588Z,16.50
2018-09-25T21:50:44.500Z,16.50
2018-09-25T21:53:19.422Z,16.50
2018-09-25T21:55:54.605Z,16.50
2018-09-25T21:58:29.794Z,16.60
2018-09-25T22:01:05.165Z,16.70
2018-09-25T22:03:40.098Z,16.70
2018-09-25T22:06:15.108Z,16.70
2018-09-25T22:08:50.342Z,16.60
2018-09-25T22:11:25.274Z,16.60
2018-09-25T22:14:00.511Z,16.60
2018-09-25T22:16:35.783Z,16.50
2018-09-25T22:19:10.782Z,16.40
2018-09-25T22:21:46.046Z,16.40
2018-09-25T22:24:20.923Z,16.30
2018-09-25T22:26:55.995Z,16.30
2018-09-25T22:29:30.717Z,16.30
2018-09-25T22:32:05.755Z,16.20
2018-09-25T22:34:40.660Z,16.20
2018-09-25T22:37:15.490Z,16.00
2018-09-25T22:39:50.467Z,16.00
2018-09-25T22:42:25.512Z,16.00
2018-09-25T22:45:00.384Z,16.00
2018-09-25T22:47:35.501Z,16.00
2018-09-25T22:50:10.509Z,16.00
2018-09-25T22:52:45.440Z,16.00
2018-09-25T22:55:20.223Z,16.00
2018-09-25T22:57:55.267Z,16.00
2018-09-25T23:00:29.983Z,16.10
2018-09-25T23:03:04.850Z,16.20
2018-09-25T23:05:39.876Z,16.10
2018-09-25T23:08:14.907Z,16.10
2018-09-25T23:10:49.740Z,16.10
2018-09-25T23:13:24.961Z,16.10
2018-09-25T23:15:59.964Z,16.20
2018-09-25T23:18:35.439Z,16.10
2018-09-25T23:21:10.259Z,16.00
2018-09-25T23:23:45.070Z,16.00
2018-09-25T23:26:20.541Z,16.00
2018-09-25T23:28:55.721Z,15.90
2018-09-25T23:31:30.589Z,15.90
2018-09-25T23:34:05.796Z,15.90
2018-09-25T23:36:40.572Z,15.80
2018-09-25T23:39:15.085Z,15.70
2018-09-25T23:41:50.037Z,15.70
2018-09-25T23:44:23.966Z,15.60
2018-09-25T23:47:02.157Z,15.60
2018-09-25T23:49:37.191Z,15.50
2018-09-25T23:52:15.126Z,15.50
2018-09-25T23:55:19.505Z,15.50
2018-09-25T23:58:04.431Z,15.50
